createdAt,value
2023-03-03T00:00:26.139Z,0.15
2023-03-03T00:03:58.572Z,0.05
2023-03-03T00:07:25.986Z,0.01
2023-03-03T00:10:55.757Z,-0.01
2023-03-03T00:14:28.433Z,-0.06
2023-03-03T00:17:55.956Z,-0.08
2023-03-03T00:21:35.087Z,-0.16
2023-03-03T00:25:23.952Z,-0.19
2023-03-03T00:28:52.196Z,-0.23
2023-03-03T00:32:27.710Z,-0.22
2023-03-03T00:35:54.694Z,-0.21
2023-03-03T00:39:32.671Z,-0.20
2023-03-03T00:43:01.979Z,-0.21
2023-03-03T00:46:29.101Z,-0.22
2023-03-03T00:49:56.819Z,-0.25
2023-03-03T00:53:25.346Z,-0.26
2023-03-03T00:56:53.917Z,-0.30
2023-03-03T01:00:22.001Z,-0.38
2023-03-03T01:03:48.899Z,-0.44
2023-03-03T01:07:16.312Z,-0.46
2023-03-03T01:10:46.696Z,-0.48
2023-03-03T01:14:13.458Z,-0.48
2023-03-03T01:17:41.142Z,-0.49
2023-03-03T01:21:09.290Z,-0.51
2023-03-03T01:24:36.099Z,-0.51
2023-03-03T01:28:05.027Z,-0.52
2023-03-03T01:31:32.254Z,-0.54
2023-03-03T01:34:59.250Z,-0.52
2023-03-03T01:38:25.952Z,-0.51
2023-03-03T01:41:52.636Z,-0.47
2023-03-03T01:45:23.523Z,-0.43
2023-03-03T01:48:51.337Z,-0.39
2023-03-03T01:52:27.617Z,-0.37
2023-03-03T01:55:56.184Z,-0.38
2023-03-03T01:59:26.318Z,-0.35
2023-03-03T02:02:54.279Z,-0.30
2023-03-03T02:06:24.408Z,-0.26
2023-03-03T02:10:00.332Z,-0.22
2023-03-03T02:13:27.374Z,-0.21
2023-03-03T02:16:55.027Z,-0.21
2023-03-03T02:20:32.959Z,-0.21
2023-03-03T02:24:08.061Z,-0.24
2023-03-03T02:27:36.602Z,-0.31
2023-03-03T02:31:04.833Z,-0.36
2023-03-03T02:34:31.328Z,-0.40
2023-03-03T02:38:01.423Z,-0.47
2023-03-03T02:41:36.204Z,-0.55
2023-03-03T02:45:03.687Z,-0.61
2023-03-03T02:48:30.258Z,-0.66
2023-03-03T02:51:57.093Z,-0.71
2023-03-03T02:55:24.362Z,-0.73
2023-03-03T02:58:51.922Z,-0.73
2023-03-03T03:02:20.370Z,-0.70
2023-03-03T03:05:47.924Z,-0.67
2023-03-03T03:09:16.215Z,-0.64
2023-03-03T03:12:43.550Z,-0.60
2023-03-03T03:16:11.860Z,-0.54
2023-03-03T03:19:39.723Z,-0.51
2023-03-03T03:23:07.076Z,-0.46
2023-03-03T03:26:33.898Z,-0.43
2023-03-03T03:30:02.013Z,-0.40
2023-03-03T03:33:30.100Z,-0.41
2023-03-03T03:37:00.141Z,-0.41
2023-03-03T03:40:28.108Z,-0.45
2023-03-03T03:43:55.409Z,-0.49
2023-03-03T03:47:23.457Z,-0.54
2023-03-03T03:50:50.900Z,-0.56
2023-03-03T03:54:18.314Z,-0.58
2023-03-03T03:57:46.666Z,-0.62
2023-03-03T04:01:13.363Z,-0.61
2023-03-03T04:04:44.861Z,-0.65
2023-03-03T04:08:13.046Z,-0.66
2023-03-03T04:11:39.909Z,-0.66
2023-03-03T04:15:10.095Z,-0.64
2023-03-03T04:18:37.861Z,-0.63
2023-03-03T04:22:07.179Z,-0.57
2023-03-03T04:25:34.580Z,-0.52
2023-03-03T04:29:02.829Z,-0.46
2023-03-03T04:32:30.691Z,-0.40
2023-03-03T04:35:57.629Z,-0.31
2023-03-03T04:39:25.481Z,-0.21
2023-03-03T04:42:53.260Z,-0.17
2023-03-03T04:46:20.277Z,-0.16
2023-03-03T04:49:48.364Z,-0.13
2023-03-03T04:53:16.022Z,-0.11
2023-03-03T04:56:43.006Z,-0.13
2023-03-03T05:00:13.359Z,-0.14
2023-03-03T05:03:40.850Z,-0.15
2023-03-03T05:07:08.451Z,-0.17
2023-03-03T05:10:36.391Z,-0.21
2023-03-03T05:14:03.280Z,-0.26
2023-03-03T05:17:30.396Z,-0.32
2023-03-03T05:20:56.749Z,-0.41
2023-03-03T05:24:24.146Z,-0.45
2023-03-03T05:27:50.829Z,-0.47
2023-03-03T05:31:17.456Z,-0.45
2023-03-03T05:34:45.552Z,-0.43
2023-03-03T05:38:15.487Z,-0.40
2023-03-03T05:41:41.884Z,-0.35
2023-03-03T05:45:10.025Z,-0.26
2023-03-03T05:48:36.942Z,-0.24
2023-03-03T05:52:08.155Z,-0.20
2023-03-03T05:55:34.816Z,-0.13
2023-03-03T05:59:02.681Z,-0.07
2023-03-03T06:02:29.784Z,-0.03
2023-03-03T06:05:57.152Z,-0.02
2023-03-03T06:09:26.536Z,-0.05
2023-03-03T06:12:53.857Z,-0.08
2023-03-03T06:16:21.062Z,-0.10
2023-03-03T06:19:48.592Z,-0.15
2023-03-03T06:23:15.999Z,-0.19
2023-03-03T06:26:42.832Z,-0.23
2023-03-03T06:30:13.125Z,-0.24
2023-03-03T06:33:43.674Z,-0.24
2023-03-03T06:37:10.420Z,-0.23
2023-03-03T06:40:37.086Z,-0.24
2023-03-03T06:44:04.279Z,-0.25
2023-03-03T06:47:31.883Z,-0.24
2023-03-03T06:50:58.850Z,-0.22
2023-03-03T06:54:31.138Z,-0.18
2023-03-03T06:57:58.286Z,-0.15
2023-03-03T07:01:24.881Z,-0.12
2023-03-03T07:04:51.825Z,-0.09
2023-03-03T07:08:20.869Z,-0.04
2023-03-03T07:11:50.289Z,0.01
2023-03-03T07:15:21.907Z,0.05
2023-03-03T07:18:54.189Z,0.13
2023-03-03T07:22:23.470Z,0.21
2023-03-03T07:25:51.441Z,0.22
2023-03-03T07:29:27.721Z,0.22
2023-03-03T07:32:59.010Z,0.25
2023-03-03T07:36:31.479Z,0.23
2023-03-03T07:39:58.839Z,0.22
2023-03-03T07:43:35.485Z,0.25
2023-03-03T07:47:13.745Z,0.26
2023-03-03T07:50:43.817Z,0.26
2023-03-03T07:54:28.776Z,0.28
2023-03-03T07:58:17.726Z,0.31
2023-03-03T08:01:55.446Z,0.34
2023-03-03T08:05:39.219Z,0.36
2023-03-03T08:09:30.234Z,0.36
2023-03-03T08:13:09.774Z,0.40
2023-03-03T08:16:42.021Z,0.52
2023-03-03T08:20:47.729Z,0.64
2023-03-03T08:24:14.722Z,0.72
2023-03-03T08:27:42.169Z,0.79
2023-03-03T08:31:20.325Z,0.83
2023-03-03T08:34:52.321Z,0.92
2023-03-03T08:38:21.915Z,1.02
2023-03-03T08:41:50.563Z,1.11
2023-03-03T08:45:17.220Z,1.16
2023-03-03T08:48:45.599Z,1.22
2023-03-03T08:52:12.854Z,1.26
2023-03-03T08:55:39.828Z,1.29
2023-03-03T08:59:06.773Z,1.37
2023-03-03T09:02:33.817Z,1.44
2023-03-03T09:06:01.099Z,1.45
2023-03-03T09:09:28.598Z,1.47
2023-03-03T09:12:58.478Z,1.51
2023-03-03T09:16:25.244Z,1.56
2023-03-03T09:19:54.330Z,1.63
2023-03-03T09:23:35.046Z,1.72
2023-03-03T09:27:03.146Z,1.81
2023-03-03T09:30:47.640Z,1.90
2023-03-03T09:34:22.123Z,2.00
2023-03-03T09:37:53.062Z,2.12
2023-03-03T09:45:43.357Z,2.33
2023-03-03T09:49:24.735Z,2.35
2023-03-03T09:53:03.482Z,2.33
2023-03-03T09:56:36.116Z,2.31
2023-03-03T10:00:21.097Z,2.35
2023-03-03T10:04:07.987Z,2.38
2023-03-03T10:07:45.281Z,2.41
2023-03-03T10:11:24.584Z,2.41
2023-03-03T10:15:13.505Z,2.41
2023-03-03T10:18:49.930Z,2.41
2023-03-03T10:22:27.573Z,2.39
2023-03-03T10:26:08.696Z,2.40
2023-03-03T10:29:41.571Z,2.41
2023-03-03T10:33:15.805Z,2.44
2023-03-03T10:37:08.962Z,2.48
2023-03-03T10:40:42.768Z,2.53
2023-03-03T10:44:33.445Z,2.60
2023-03-03T10:48:17.326Z,2.64
2023-03-03T10:51:57.798Z,2.71
2023-03-03T10:55:45.114Z,2.74
2023-03-03T10:59:28.774Z,2.73
2023-03-03T11:03:22.139Z,2.72
2023-03-03T11:06:56.596Z,2.71
2023-03-03T11:10:39.900Z,2.62
2023-03-03T11:14:14.920Z,2.55
2023-03-03T11:17:56.342Z,2.53
2023-03-03T11:21:35.018Z,2.53
2023-03-03T11:25:10.922Z,2.55
2023-03-03T11:28:51.954Z,2.57
2023-03-03T11:32:28.755Z,2.58
2023-03-03T11:36:08.859Z,2.60
2023-03-03T11:39:37.324Z,2.65
2023-03-03T11:43:30.079Z,2.69
2023-03-03T11:47:08.027Z,2.81
2023-03-03T11:50:45.047Z,2.92
2023-03-03T11:54:20.381Z,2.97
2023-03-03T11:57:52.732Z,3.03
2023-03-03T12:01:24.616Z,3.04
2023-03-03T12:04:55.664Z,3.01
2023-03-03T12:08:36.527Z,3.01
2023-03-03T12:12:08.321Z,3.00
2023-03-03T12:15:43.241Z,3.00
2023-03-03T12:19:41.923Z,2.99
2023-03-03T12:23:21.426Z,2.97
2023-03-03T12:26:57.070Z,2.97
2023-03-03T12:30:39.927Z,2.97
2023-03-03T12:34:13.481Z,2.97
2023-03-03T12:37:54.966Z,2.98
2023-03-03T12:41:28.754Z,3.02
2023-03-03T12:45:11.014Z,3.09
2023-03-03T12:48:42.997Z,3.15
2023-03-03T12:52:26.229Z,3.24
2023-03-03T12:55:56.998Z,3.37
2023-03-03T12:59:32.340Z,3.45
2023-03-03T13:03:12.198Z,3.52
2023-03-03T13:06:44.699Z,3.58
2023-03-03T13:10:40.803Z,3.65
2023-03-03T13:14:19.224Z,3.72
2023-03-03T13:17:56.794Z,3.80
2023-03-03T13:21:29.525Z,3.83
2023-03-03T13:25:04.732Z,3.86
2023-03-03T13:28:39.550Z,3.85
2023-03-03T13:32:14.110Z,3.85
2023-03-03T13:35:47.079Z,3.84
2023-03-03T13:39:23.297Z,3.84
2023-03-03T13:42:54.384Z,3.83
2023-03-03T13:46:36.932Z,3.85
2023-03-03T13:50:24.202Z,3.86
2023-03-03T13:54:00.250Z,3.91
2023-03-03T13:57:52.328Z,3.95
2023-03-03T14:01:26.837Z,3.98
2023-03-03T14:05:02.220Z,3.97
2023-03-03T14:08:46.767Z,3.94
2023-03-03T14:12:23.416Z,3.90
2023-03-03T14:15:57.584Z,3.88
2023-03-03T14:19:27.895Z,3.87
2023-03-03T14:22:58.585Z,3.87
2023-03-03T14:26:25.422Z,3.90
2023-03-03T14:29:52.507Z,3.89
2023-03-03T14:33:29.975Z,3.86
2023-03-03T14:37:21.109Z,3.90
2023-03-03T14:40:50.044Z,3.98
2023-03-03T14:44:29.828Z,3.97
2023-03-03T14:47:58.132Z,3.93
2023-03-03T14:51:30.983Z,3.92
2023-03-03T14:55:00.547Z,3.94
2023-03-03T14:58:36.921Z,3.94
2023-03-03T15:02:36.340Z,3.95
2023-03-03T15:06:11.533Z,3.91
2023-03-03T15:09:43.641Z,3.92
2023-03-03T15:13:34.474Z,3.93
2023-03-03T15:17:21.050Z,3.97
2023-03-03T15:20:49.728Z,4.03
2023-03-03T15:24:26.748Z,4.08
2023-03-03T15:28:06.422Z,4.06
2023-03-03T15:31:43.642Z,4.10
2023-03-03T15:35:32.427Z,4.11
2023-03-03T15:39:14.693Z,4.07
2023-03-03T15:42:49.586Z,4.00
2023-03-03T15:46:30.637Z,3.93
2023-03-03T15:50:21.055Z,3.87
2023-03-03T15:54:16.555Z,3.80
2023-03-03T15:57:54.513Z,3.75
2023-03-03T16:01:28.687Z,3.67
2023-03-03T16:05:04.876Z,3.59
2023-03-03T16:08:42.191Z,3.52
2023-03-03T16:12:18.627Z,3.46
2023-03-03T16:15:58.929Z,3.38
2023-03-03T16:19:39.197Z,3.33
2023-03-03T16:23:31.136Z,3.28
2023-03-03T16:27:07.754Z,3.26
2023-03-03T16:30:41.713Z,3.22
2023-03-03T16:34:21.118Z,3.21
2023-03-03T16:38:01.176Z,3.21
2023-03-03T16:41:39.851Z,3.22
2023-03-03T16:45:23.684Z,3.18
2023-03-03T16:48:56.781Z,3.15
2023-03-03T16:52:35.238Z,3.10
2023-03-03T16:56:11.518Z,3.03
2023-03-03T17:00:01.757Z,2.97
2023-03-03T17:03:49.477Z,2.90
2023-03-03T17:07:40.183Z,2.78
2023-03-03T17:11:21.265Z,2.70
2023-03-03T17:15:07.620Z,2.64
2023-03-03T17:18:45.735Z,2.54
2023-03-03T17:22:24.578Z,2.46
2023-03-03T17:26:00.898Z,2.41
2023-03-03T17:29:47.339Z,2.35
2023-03-03T17:33:41.377Z,2.32
2023-03-03T17:37:19.756Z,2.26
2023-03-03T17:41:00.815Z,2.21
2023-03-03T17:44:36.976Z,2.23
2023-03-03T17:48:25.887Z,2.24
2023-03-03T17:52:27.338Z,2.26
2023-03-03T17:56:13.643Z,2.29
2023-03-03T17:59:59.253Z,2.25
2023-03-03T18:03:54.181Z,2.19
2023-03-03T18:07:36.666Z,2.13
2023-03-03T18:11:24.903Z,2.06
2023-03-03T18:15:20.820Z,2.06
2023-03-03T18:19:23.381Z,2.02
2023-03-03T18:22:54.165Z,1.96
2023-03-03T18:26:37.781Z,1.92
2023-03-03T18:30:29.621Z,1.88
2023-03-03T18:34:09.431Z,1.88
2023-03-03T18:37:49.371Z,1.86
2023-03-03T18:41:27.002Z,1.87
2023-03-03T18:44:55.869Z,1.91
2023-03-03T18:48:45.624Z,1.94
2023-03-03T18:52:24.650Z,1.98
2023-03-03T18:55:54.168Z,2.03
2023-03-03T18:59:42.566Z,2.08
2023-03-03T19:03:28.728Z,2.11
2023-03-03T19:07:30.941Z,2.12
2023-03-03T19:10:59.801Z,2.12
2023-03-03T19:14:40.814Z,2.11
2023-03-03T19:18:16.207Z,2.11
2023-03-03T19:21:52.708Z,2.09
2023-03-03T19:25:27.469Z,2.08
2023-03-03T19:29:06.425Z,2.09
2023-03-03T19:32:50.149Z,2.08
2023-03-03T19:36:42.302Z,2.08
2023-03-03T19:40:24.725Z,2.09
2023-03-03T19:44:02.857Z,2.10
2023-03-03T19:47:38.416Z,2.13
2023-03-03T19:51:10.855Z,2.16
2023-03-03T19:55:05.706Z,2.18
2023-03-03T19:58:46.427Z,2.21
2023-03-03T20:02:38.238Z,2.24
2023-03-03T20:06:24.087Z,2.29
2023-03-03T20:10:03.407Z,2.31
2023-03-03T20:13:53.186Z,2.33
2023-03-03T20:17:52.693Z,2.35
2023-03-03T20:21:40.285Z,2.36
2023-03-03T20:25:21.262Z,2.32
2023-03-03T20:29:14.880Z,2.29
2023-03-03T20:33:10.928Z,2.29
2023-03-03T20:36:47.728Z,2.28
2023-03-03T20:40:31.384Z,2.32
2023-03-03T20:44:12.300Z,2.35
2023-03-03T20:47:50.010Z,2.40
2023-03-03T20:51:33.769Z,2.41
2023-03-03T20:55:17.309Z,2.46
2023-03-03T20:59:04.408Z,2.45
2023-03-03T21:02:40.173Z,2.49
2023-03-03T21:06:15.838Z,2.45
2023-03-03T21:09:43.556Z,2.42
2023-03-03T21:13:37.566Z,2.39
2023-03-03T21:17:26.481Z,2.35
2023-03-03T21:20:54.279Z,2.31
2023-03-03T21:24:23.011Z,2.30
2023-03-03T21:27:51.604Z,2.33
2023-03-03T21:31:25.128Z,2.36
2023-03-03T21:35:11.866Z,2.38
2023-03-03T21:38:42.869Z,2.40
2023-03-03T21:42:14.872Z,2.43
2023-03-03T21:45:46.811Z,2.45
2023-03-03T21:49:16.049Z,2.46
2023-03-03T21:52:49.266Z,2.48
2023-03-03T21:56:18.503Z,2.50
2023-03-03T21:59:47.311Z,2.48
2023-03-03T22:03:15.903Z,2.47
2023-03-03T22:06:45.337Z,2.49
2023-03-03T22:10:16.466Z,2.46
2023-03-03T22:13:45.090Z,2.45
2023-03-03T22:17:15.703Z,2.44
2023-03-03T22:20:43.797Z,2.45
2023-03-03T22:24:13.052Z,2.46
2023-03-03T22:27:41.378Z,2.47
2023-03-03T22:31:16.571Z,2.50
2023-03-03T22:34:46.819Z,2.55
2023-03-03T22:38:15.437Z,2.60
2023-03-03T22:41:43.645Z,2.62
2023-03-03T22:45:15.161Z,2.66
2023-03-03T22:48:46.711Z,2.68
2023-03-03T22:52:15.236Z,2.68
2023-03-03T22:55:44.588Z,2.68
2023-03-03T22:59:14.876Z,2.67
2023-03-03T23:02:43.685Z,2.65
2023-03-03T23:06:13.786Z,2.63
2023-03-03T23:09:47.142Z,2.61
2023-03-03T23:13:15.411Z,2.60
2023-03-03T23:16:46.653Z,2.58
2023-03-03T23:20:26.220Z,2.58
2023-03-03T23:23:54.947Z,2.57
2023-03-03T23:27:22.951Z,2.57
2023-03-03T23:30:52.355Z,2.57
2023-03-03T23:34:19.480Z,2.60
2023-03-03T23:37:49.302Z,2.64
2023-03-03T23:41:16.877Z,2.68
2023-03-03T23:44:46.151Z,2.73
2023-03-03T23:48:23.111Z,2.78
2023-03-03T23:51:55.080Z,2.79
2023-03-03T23:55:28.004Z,2.78
2023-03-03T23:59:00.664Z,2.79
